Main page
METAR-TAF:

METAR-TAF

Airports :

Lincoln Airport

Lincoln, Nebraska, United States

latitude: 40-49-52N, longitude: 096-45-52W, elevation: 1214 ft

Current weather observation

The report was made 34 minutes ago, at 08:54 UTC
Wind 7 mph from the North
Temperature 68°F
Humidity 56%
Pressure 30.04 in. Hg
Visibility: 10 miles
Few clouds at a height of 9000 ft

METAR: KLNK 140854Z AUTO 36006KT 10SM FEW090 20/11 A3004 RMK AO2 SLP159 T02000106 51008

Time: 04:28 (09:28 UTC)

Forecast

The report was made 4 hours and 8 minutes ago, at 05:20 UTC
Forecast valid from 14 at 06 UTC to 15 at 06 UTC
Wind 6 mph from the North/Northeast
Visibility: 6 miles
Few clouds at a height of 15000 ft
From 14 at 1500 UTC
Wind 13 mph from the East/Southeast
Visibility: 6 miles
Scattered clouds at a height of 15000 ft

TAF: KLNK 140520Z 1406/1506 03005KT P6SM FEW150 FM141500 12011KT P6SM SCT150

Weather observations and forecasts of more than 4000 airports (METAR and TAF reports).

The available stations are represented by yellow and red dots on the map.

Hover mouse over dot to see the name of the station.

Then click to see weather observations and forecasts.

To change the map : click on the green buttons with a black cross to zoom in, on the green button with a dash to zoom out, or on the green arrows for adjacent maps.


METAR-TAF: